sensor_id;sensor_type;location;lat;lon;timestamp;temperature;humidity
40622;DHT22;26324;52.040;11.528;2024-03-08T00:00:11;2.60;71.40
40622;DHT22;26324;52.040;11.528;2024-03-08T00:02:42;2.60;71.70
40622;DHT22;26324;52.040;11.528;2024-03-08T00:05:10;2.60;71.90
40622;DHT22;26324;52.040;11.528;2024-03-08T00:07:38;2.60;71.60
40622;DHT22;26324;52.040;11.528;2024-03-08T00:10:07;2.50;72.30
40622;DHT22;26324;52.040;11.528;2024-03-08T00:12:43;2.50;72.30
40622;DHT22;26324;52.040;11.528;2024-03-08T00:15:16;2.50;72.50
40622;DHT22;26324;52.040;11.528;2024-03-08T00:17:46;2.50;72.30
40622;DHT22;26324;52.040;11.528;2024-03-08T00:20:16;2.40;72.30
40622;DHT22;26324;52.040;11.528;2024-03-08T00:22:45;2.30;72.40
40622;DHT22;26324;52.040;11.528;2024-03-08T00:25:13;2.20;72.70
40622;DHT22;26324;52.040;11.528;2024-03-08T00:27:40;2.10;73.10
40622;DHT22;26324;52.040;11.528;2024-03-08T00:30:11;2.10;73.20
40622;DHT22;26324;52.040;11.528;2024-03-08T00:32:41;2.10;73.10
40622;DHT22;26324;52.040;11.528;2024-03-08T00:35:08;2.00;73.20
40622;DHT22;26324;52.040;11.528;2024-03-08T00:37:36;2.00;73.50
40622;DHT22;26324;52.040;11.528;2024-03-08T00:40:05;2.00;73.40
40622;DHT22;26324;52.040;11.528;2024-03-08T00:42:35;2.00;73.60
40622;DHT22;26324;52.040;11.528;2024-03-08T00:45:02;2.00;73.80
40622;DHT22;26324;52.040;11.528;2024-03-08T00:47:30;1.80;73.40
40622;DHT22;26324;52.040;11.528;2024-03-08T00:49:57;1.80;73.80
40622;DHT22;26324;52.040;11.528;2024-03-08T00:52:25;1.80;74.20
40622;DHT22;26324;52.040;11.528;2024-03-08T00:54:52;1.70;74.40
40622;DHT22;26324;52.040;11.528;2024-03-08T00:57:20;1.80;74.20
40622;DHT22;26324;52.040;11.528;2024-03-08T00:59:48;1.70;74.30
40622;DHT22;26324;52.040;11.528;2024-03-08T01:02:15;1.70;74.70
40622;DHT22;26324;52.040;11.528;2024-03-08T01:04:46;1.70;74.60
40622;DHT22;26324;52.040;11.528;2024-03-08T01:07:14;1.70;74.30
40622;DHT22;26324;52.040;11.528;2024-03-08T01:09:42;1.60;74.40
40622;DHT22;26324;52.040;11.528;2024-03-08T01:12:09;1.60;74.20
40622;DHT22;26324;52.040;11.528;2024-03-08T01:14:38;1.60;74.30
40622;DHT22;26324;52.040;11.528;2024-03-08T01:17:05;1.60;74.20
40622;DHT22;26324;52.040;11.528;2024-03-08T01:19:32;1.60;74.40
40622;DHT22;26324;52.040;11.528;2024-03-08T01:22:00;1.50;74.30
40622;DHT22;26324;52.040;11.528;2024-03-08T01:24:31;1.50;74.50
40622;DHT22;26324;52.040;11.528;2024-03-08T01:26:58;1.40;75.00
40622;DHT22;26324;52.040;11.528;2024-03-08T01:29:32;1.40;75.30
40622;DHT22;26324;52.040;11.528;2024-03-08T01:32:00;1.30;75.30
40622;DHT22;26324;52.040;11.528;2024-03-08T01:34:32;1.30;75.10
40622;DHT22;26324;52.040;11.528;2024-03-08T01:37:00;1.20;75.20
40622;DHT22;26324;52.040;11.528;2024-03-08T01:39:28;1.20;75.20
40622;DHT22;26324;52.040;11.528;2024-03-08T01:41:55;1.10;75.50
40622;DHT22;26324;52.040;11.528;2024-03-08T01:44:22;1.10;75.40
40622;DHT22;26324;52.040;11.528;2024-03-08T01:46:50;1.10;75.50
40622;DHT22;26324;52.040;11.528;2024-03-08T01:49:20;1.10;75.40
40622;DHT22;26324;52.040;11.528;2024-03-08T01:51:48;1.10;75.60
40622;DHT22;26324;52.040;11.528;2024-03-08T01:54:17;1.10;75.60
40622;DHT22;26324;52.040;11.528;2024-03-08T01:56:45;1.10;75.40
40622;DHT22;26324;52.040;11.528;2024-03-08T01:59:13;1.10;75.60
40622;DHT22;26324;52.040;11.528;2024-03-08T02:04:10;1.00;75.60
40622;DHT22;26324;52.040;11.528;2024-03-08T02:06:38;1.00;75.60
40622;DHT22;26324;52.040;11.528;2024-03-08T02:09:05;1.00;75.90
40622;DHT22;26324;52.040;11.528;2024-03-08T02:14:03;0.80;75.80
40622;DHT22;26324;52.040;11.528;2024-03-08T02:16:34;0.80;76.00
40622;DHT22;26324;52.040;11.528;2024-03-08T02:19:01;0.90;76.00
40622;DHT22;26324;52.040;11.528;2024-03-08T02:21:29;0.80;76.00
40622;DHT22;26324;52.040;11.528;2024-03-08T02:23:56;0.80;75.70
40622;DHT22;26324;52.040;11.528;2024-03-08T02:26:24;0.80;76.00
40622;DHT22;26324;52.040;11.528;2024-03-08T02:28:51;0.80;76.10
40622;DHT22;26324;52.040;11.528;2024-03-08T02:31:18;0.80;76.10
40622;DHT22;26324;52.040;11.528;2024-03-08T02:33:46;0.80;75.70
40622;DHT22;26324;52.040;11.528;2024-03-08T02:36:14;0.70;75.80
40622;DHT22;26324;52.040;11.528;2024-03-08T02:41:11;0.60;76.20
40622;DHT22;26324;52.040;11.528;2024-03-08T09:30:33;7.60;63.80
40622;DHT22;26324;52.040;11.528;2024-03-08T09:33:03;7.30;65.00
40622;DHT22;26324;52.040;11.528;2024-03-08T10:17:56;9.20;55.00
40622;DHT22;26324;52.040;11.528;2024-03-08T10:22:53;9.70;53.50
40622;DHT22;26324;52.040;11.528;2024-03-08T10:25:36;9.40;55.20
40622;DHT22;26324;52.040;11.528;2024-03-08T10:30:32;10.20;52.40
40622;DHT22;26324;52.040;11.528;2024-03-08T10:32:59;10.00;50.60
40622;DHT22;26324;52.040;11.528;2024-03-08T10:35:28;9.50;52.90
40622;DHT22;26324;52.040;11.528;2024-03-08T10:37:56;9.50;52.90
40622;DHT22;26324;52.040;11.528;2024-03-08T10:40:29;9.60;53.20
40622;DHT22;26324;52.040;11.528;2024-03-08T10:42:58;9.30;53.80
40622;DHT22;26324;52.040;11.528;2024-03-08T10:45:37;9.50;53.90
40622;DHT22;26324;52.040;11.528;2024-03-08T10:55:51;11.40;49.80
40622;DHT22;26324;52.040;11.528;2024-03-08T10:58:30;11.00;50.00
40622;DHT22;26324;52.040;11.528;2024-03-08T11:00:59;10.60;49.70
40622;DHT22;26324;52.040;11.528;2024-03-08T11:06:41;10.40;50.70
40622;DHT22;26324;52.040;11.528;2024-03-08T11:09:27;10.00;50.80
40622;DHT22;26324;52.040;11.528;2024-03-08T11:12:18;10.00;51.30
40622;DHT22;26324;52.040;11.528;2024-03-08T11:14:50;10.10;51.40
40622;DHT22;26324;52.040;11.528;2024-03-08T11:19:56;10.50;49.30
40622;DHT22;26324;52.040;11.528;2024-03-08T11:22:29;10.50;50.50
40622;DHT22;26324;52.040;11.528;2024-03-08T11:30:07;10.90;49.60
40622;DHT22;26324;52.040;11.528;2024-03-08T11:32:45;10.20;50.40
40622;DHT22;26324;52.040;11.528;2024-03-08T11:35:21;10.40;51.20
40622;DHT22;26324;52.040;11.528;2024-03-08T11:37:50;10.20;50.60
40622;DHT22;26324;52.040;11.528;2024-03-08T11:40:19;10.40;50.30
40622;DHT22;26324;52.040;11.528;2024-03-08T11:42:48;10.50;48.90
40622;DHT22;26324;52.040;11.528;2024-03-08T11:45:16;10.70;49.50
40622;DHT22;26324;52.040;11.528;2024-03-08T11:47:45;11.10;50.50
40622;DHT22;26324;52.040;11.528;2024-03-08T11:50:17;11.10;48.10
40622;DHT22;26324;52.040;11.528;2024-03-08T11:52:48;11.10;48.40
40622;DHT22;26324;52.040;11.528;2024-03-08T11:55:16;11.40;49.80
40622;DHT22;26324;52.040;11.528;2024-03-08T11:57:47;11.50;48.60
40622;DHT22;26324;52.040;11.528;2024-03-08T12:00:16;11.10;47.00
40622;DHT22;26324;52.040;11.528;2024-03-08T12:03:01;11.30;49.00
40622;DHT22;26324;52.040;11.528;2024-03-08T12:05:29;11.30;48.80
40622;DHT22;26324;52.040;11.528;2024-03-08T12:07:58;11.50;48.70
40622;DHT22;26324;52.040;11.528;2024-03-08T12:10:26;12.00;48.80
40622;DHT22;26324;52.040;11.528;2024-03-08T12:12:56;12.50;47.50
40622;DHT22;26324;52.040;11.528;2024-03-08T12:48:34;14.70;42.70
40622;DHT22;26324;52.040;11.528;2024-03-08T12:51:02;14.20;42.30
40622;DHT22;26324;52.040;11.528;2024-03-08T12:53:30;14.10;42.00
40622;DHT22;26324;52.040;11.528;2024-03-08T12:55:57;14.00;42.00
40622;DHT22;26324;52.040;11.528;2024-03-08T12:58:25;14.10;42.10
40622;DHT22;26324;52.040;11.528;2024-03-08T13:00:53;14.30;42.40
40622;DHT22;26324;52.040;11.528;2024-03-08T13:03:20;14.20;42.80
40622;DHT22;26324;52.040;11.528;2024-03-08T13:05:50;14.30;42.10
40622;DHT22;26324;52.040;11.528;2024-03-08T13:08:17;14.30;41.10
40622;DHT22;26324;52.040;11.528;2024-03-08T13:10:45;14.40;41.00
40622;DHT22;26324;52.040;11.528;2024-03-08T13:13:13;14.60;41.40
40622;DHT22;26324;52.040;11.528;2024-03-08T13:15:44;14.90;40.30
40622;DHT22;26324;52.040;11.528;2024-03-08T13:18:11;15.20;40.90
40622;DHT22;26324;52.040;11.528;2024-03-08T20:05:56;7.10;60.40
40622;DHT22;26324;52.040;11.528;2024-03-08T21:15:51;6.40;64.60
40622;DHT22;26324;52.040;11.528;2024-03-08T21:18:20;5.70;67.10
40622;DHT22;26324;52.040;11.528;2024-03-08T21:20:48;5.60;67.50
40622;DHT22;26324;52.040;11.528;2024-03-08T21:23:16;5.50;67.90
40622;DHT22;26324;52.040;11.528;2024-03-08T21:25:43;5.50;68.10
40622;DHT22;26324;52.040;11.528;2024-03-08T21:28:11;5.60;68.30
40622;DHT22;26324;52.040;11.528;2024-03-08T21:30:39;5.50;68.20
40622;DHT22;26324;52.040;11.528;2024-03-08T21:33:07;5.50;68.50
40622;DHT22;26324;52.040;11.528;2024-03-08T21:35:39;5.50;68.80
40622;DHT22;26324;52.040;11.528;2024-03-08T21:40:36;5.40;68.60
40622;DHT22;26324;52.040;11.528;2024-03-08T21:43:27;5.30;68.80
40622;DHT22;26324;52.040;11.528;2024-03-08T21:45:54;5.20;69.20
40622;DHT22;26324;52.040;11.528;2024-03-08T21:48:22;5.20;69.30
40622;DHT22;26324;52.040;11.528;2024-03-08T21:50:49;5.10;69.70
40622;DHT22;26324;52.040;11.528;2024-03-08T21:53:17;5.10;69.80
40622;DHT22;26324;52.040;11.528;2024-03-08T21:55:56;5.00;69.90
40622;DHT22;26324;52.040;11.528;2024-03-08T21:58:24;5.00;69.90
40622;DHT22;26324;52.040;11.528;2024-03-08T22:00:52;5.00;70.20
40622;DHT22;26324;52.040;11.528;2024-03-08T22:03:20;5.00;70.20
40622;DHT22;26324;52.040;11.528;2024-03-08T22:05:49;4.90;70.40
40622;DHT22;26324;52.040;11.528;2024-03-08T22:08:17;4.80;70.60
40622;DHT22;26324;52.040;11.528;2024-03-08T22:10:46;4.80;70.80
40622;DHT22;26324;52.040;11.528;2024-03-08T22:13:14;4.70;71.40
40622;DHT22;26324;52.040;11.528;2024-03-08T22:15:42;4.70;71.40
40622;DHT22;26324;52.040;11.528;2024-03-08T22:18:16;4.60;71.30
40622;DHT22;26324;52.040;11.528;2024-03-08T22:20:44;4.70;71.20
40622;DHT22;26324;52.040;11.528;2024-03-08T22:25:44;4.60;71.60
40622;DHT22;26324;52.040;11.528;2024-03-08T22:28:14;4.60;72.00
40622;DHT22;26324;52.040;11.528;2024-03-08T22:30:42;4.60;71.90
